Main page
METAR-TAF:

METAR-TAF

Airports :

Kerry Airport

Killarney, Ireland

latitude: 52-10-51N, longitude: 9-31-26W, elevation: 34 m

Current weather observation

The report was made 4 hours and 30 minutes ago, at 20:00 UTC
Wind 11 kt from the West/Southwest
Temperature 4°C
Humidity 87%
Pressure 1015 hPa
Visibility 10 km or more
no clouds below 1500 m and no cumulonimbus

METAR: EIKY 172000Z 25011KT CAVOK 04/02 Q1015

Time: 00:30 (00:30 UTC)

Forecast

The report was made 7 hours and 30 minutes ago, at 17:00 UTC
Forecast valid from 17 at 18 UTC to 18 at 03 UTC
Wind 13 kt from the West/Southwest with gusts up to 23 kt
Visibility 10 km or more
Scattered clouds at a height of 3500 ft
Temporary
from 17 at 18 UTC to 17 at 21 UTC
Wind 20 kt from the West with gusts up to 33 kt
Visibility: 4000 m
Broken clouds at a height of 1200 ft
Broken clouds at a height of 1800 ft, Cumulonimbus.
rain showers, small hail or snow pellets

TAF: EIKY 171700Z 1718/1803 25013G23KT 9999 SCT035 TEMPO 1718/1721 27020G33KT 4000 SHRAGS BKN012 BKN018CB

Weather observations and forecasts of more than 4000 airports (METAR and TAF reports).

The available stations are represented by yellow and red dots on the map.

Hover mouse over dot to see the name of the station.

Then click to see weather observations and forecasts.

To change the map : click on the green buttons with a black cross to zoom in, on the green button with a dash to zoom out, or on the green arrows for adjacent maps.


METAR-TAF: